Time;durP1;ratioP1;P1;durP2;ratioP2;P2;SDS_P1;SDS_P2;PMS_P1;PMS_P2;Temp;Humidity;BMP_temperature;BMP_pressure;BME280_temperature;BME280_humidity;BME280_pressure;Samples;Min_cycle;Max_cycle;Signal;HPM_P1;HPM_P2
2023/04/06 00:01:36;;;;;;;14.13;10.57;;;6.90;78.00;;;;;;4877798;29;20910;-78
2023/04/06 00:04:01;;;;;;;15.97;10.97;;;6.70;77.00;;;;;;4878020;29;20444;-78
2023/04/06 00:06:27;;;;;;;11.50;10.30;;;6.70;78.00;;;;;;4879856;29;20186;-78
2023/04/06 00:08:53;;;;;;;14.10;10.97;;;6.70;78.60;;;;;;4879302;29;20873;-78
2023/04/06 00:11:19;;;;;;;12.77;10.53;;;6.70;79.30;;;;;;4878927;29;20197;-78
2023/04/06 00:13:45;;;;;;;11.50;10.40;;;6.70;80.10;;;;;;4878260;29;20614;-78
2023/04/06 00:16:11;;;;;;;13.57;10.07;;;6.70;81.40;;;;;;4880556;29;20418;-78
2023/04/06 00:18:37;;;;;;;11.93;10.23;;;6.70;81.40;;;;;;4877640;29;20441;-78
2023/04/06 00:21:03;;;;;;;11.50;10.30;;;6.60;81.50;;;;;;4880437;29;20531;-78
2023/04/06 00:23:29;;;;;;;13.10;10.50;;;6.60;82.50;;;;;;4878336;29;20182;-78
2023/04/06 00:25:55;;;;;;;12.00;9.50;;;6.60;82.70;;;;;;4878270;29;20434;-78
2023/04/06 00:28:25;;;;;;;12.10;9.67;;;6.50;82.90;;;;;;4878434;29;20193;-78
2023/04/06 00:30:52;;;;;;;15.77;10.40;;;6.50;83.80;;;;;;4878039;29;20453;-78
2023/04/06 00:33:19;;;;;;;14.27;10.65;;;6.50;83.60;;;;;;4880274;29;20745;-78
2023/04/06 00:35:45;;;;;;;11.40;9.50;;;6.40;83.80;;;;;;4878590;29;20213;-78
2023/04/06 00:38:12;;;;;;;11.07;9.33;;;6.40;84.30;;;;;;4880404;29;20412;-78
2023/04/06 00:40:39;;;;;;;13.43;10.60;;;6.40;84.60;;;;;;4877135;29;20869;-78
2023/04/06 00:43:11;;;;;;;12.37;10.60;;;6.50;85.30;;;;;;4879862;29;20441;-78
2023/04/06 00:45:39;;;;;;;12.27;9.60;;;6.50;85.20;;;;;;4879593;29;20410;-78
2023/04/06 00:48:05;;;;;;;13.40;9.93;;;6.50;85.20;;;;;;4879301;29;20468;-79
2023/04/06 00:50:31;;;;;;;12.90;9.73;;;6.40;85.30;;;;;;4878852;29;20911;-79
2023/04/06 00:52:58;;;;;;;11.17;9.97;;;6.40;85.90;;;;;;4879115;29;20393;-79
2023/04/06 00:55:24;;;;;;;12.33;10.40;;;6.40;86.70;;;;;;4879835;29;20464;-79
2023/04/06 00:57:50;;;;;;;13.57;10.27;;;6.40;87.00;;;;;;4878842;29;20436;-78
2023/04/06 01:00:17;;;;;;;12.03;10.30;;;6.30;86.80;;;;;;4879623;29;20264;-79
2023/04/06 01:02:44;;;;;;;12.30;10.63;;;6.30;86.60;;;;;;4879049;29;20398;-79
2023/04/06 01:05:10;;;;;;;15.87;11.47;;;6.30;86.90;;;;;;4879419;29;20883;-78
2023/04/06 01:07:39;;;;;;;11.63;10.43;;;6.30;87.40;;;;;;4877427;29;20413;-78
2023/04/06 01:10:06;;;;;;;13.90;11.00;;;6.30;87.70;;;;;;4878870;29;20404;-78
2023/04/06 01:12:32;;;;;;;11.40;10.00;;;6.30;87.90;;;;;;4879313;29;20397;-79
2023/04/06 01:14:57;;;;;;;16.03;11.77;;;6.30;88.00;;;;;;4878407;29;20509;-79
2023/04/06 01:17:23;;;;;;;13.67;11.53;;;6.30;88.10;;;;;;4879173;29;20216;-78
2023/04/06 01:19:49;;;;;;;16.00;11.00;;;6.30;88.30;;;;;;4878760;29;20420;-79
2023/04/06 01:22:18;;;;;;;13.20;10.60;;;6.30;88.60;;;;;;4879446;29;20267;-78
2023/04/06 01:24:45;;;;;;;15.73;11.40;;;6.30;89.30;;;;;;4878801;29;20452;-78
2023/04/06 01:27:10;;;;;;;13.37;10.67;;;6.30;89.80;;;;;;4879401;29;20409;-78
2023/04/06 01:29:36;;;;;;;13.00;10.77;;;6.30;89.90;;;;;;4879205;29;20419;-78
2023/04/06 01:32:03;;;;;;;14.60;11.07;;;6.30;90.00;;;;;;4878359;29;20405;-80
2023/04/06 01:34:29;;;;;;;16.03;12.20;;;6.20;89.80;;;;;;4877887;29;20513;-78
2023/04/06 01:36:55;;;;;;;16.53;12.33;;;6.20;89.90;;;;;;4876960;29;20772;-78
2023/04/06 01:39:20;;;;;;;13.50;12.10;;;6.10;90.10;;;;;;4879029;29;20379;-79
2023/04/06 01:41:47;;;;;;;14.67;11.80;;;6.10;90.20;;;;;;4876781;29;20430;-78
2023/04/06 01:44:16;;;;;;;14.87;11.60;;;6.10;90.60;;;;;;4879023;29;20272;-78
2023/04/06 01:46:41;;;;;;;14.57;12.10;;;6.10;90.50;;;;;;4878124;29;20417;-78
2023/04/06 01:49:07;;;;;;;15.47;12.27;;;6.10;90.80;;;;;;4878935;29;20418;-79
2023/04/06 01:51:33;;;;;;;15.30;12.33;;;6.10;91.10;;;;;;4878711;29;20182;-78
2023/04/06 01:53:59;;;;;;;14.63;11.77;;;6.10;91.20;;;;;;4877868;29;20891;-79
2023/04/06 01:56:25;;;;;;;13.93;12.47;;;6.10;91.30;;;;;;4878901;29;20757;-79
2023/04/06 01:58:51;;;;;;;14.50;12.10;;;6.10;91.30;;;;;;4878311;29;20475;-79
2023/04/06 02:01:16;;;;;;;14.20;11.67;;;6.00;91.40;;;;;;4878840;29;20173;-79
2023/04/06 02:03:42;;;;;;;15.50;11.00;;;6.00;91.40;;;;;;4877950;29;20590;-79
2023/04/06 02:06:08;;;;;;;13.90;12.00;;;6.00;91.60;;;;;;4877833;29;20229;-79
2023/04/06 02:08:34;;;;;;;17.90;12.50;;;6.00;91.60;;;;;;4878659;29;20173;-79
2023/04/06 02:11:00;;;;;;;13.97;11.70;;;6.00;91.50;;;;;;4877796;29;20673;-78
2023/04/06 02:13:26;;;;;;;18.87;12.60;;;6.00;91.90;;;;;;4878709;29;20384;-78
2023/04/06 02:15:51;;;;;;;17.10;12.27;;;6.00;91.90;;;;;;4877711;29;20653;-78
2023/04/06 02:18:18;;;;;;;17.20;13.20;;;5.90;91.80;;;;;;4878735;29;20284;-78
2023/04/06 02:20:45;;;;;;;17.75;12.43;;;5.90;91.90;;;;;;4877838;29;20489;-79
2023/04/06 02:23:11;;;;;;;16.88;12.63;;;5.90;92.20;;;;;;4878478;29;20205;-79
2023/04/06 02:25:37;;;;;;;16.37;12.70;;;5.90;92.50;;;;;;4878481;29;20211;-79
2023/04/06 02:28:03;;;;;;;14.93;11.97;;;5.90;92.80;;;;;;4881400;29;20425;-78
2023/04/06 02:30:29;;;;;;;14.57;13.02;;;5.90;92.60;;;;;;4882349;29;20527;-79
2023/04/06 02:32:55;;;;;;;18.50;12.13;;;5.90;92.60;;;;;;4881817;29;20173;-79
2023/04/06 02:35:21;;;;;;;13.55;10.95;;;5.80;92.80;;;;;;4881374;29;20434;-79
2023/04/06 02:37:47;;;;;;;13.57;11.10;;;5.80;93.10;;;;;;4881316;29;20696;-78
2023/04/06 02:40:14;;;;;;;14.87;11.80;;;5.80;93.00;;;;;;4882187;29;20565;-79
2023/04/06 02:42:40;;;;;;;12.95;10.85;;;5.80;93.10;;;;;;4882176;29;20200;-79
2023/04/06 02:45:06;;;;;;;14.47;12.00;;;5.80;93.30;;;;;;4880002;29;20246;-79
2023/04/06 02:47:33;;;;;;;16.88;11.77;;;5.80;93.50;;;;;;4882236;29;20387;-79
2023/04/06 02:49:58;;;;;;;21.73;12.07;;;5.70;93.60;;;;;;4881281;29;20184;-79
2023/04/06 02:52:24;;;;;;;15.50;11.77;;;5.70;93.70;;;;;;4882409;29;20177;-79
2023/04/06 02:54:51;;;;;;;13.60;11.10;;;5.70;93.70;;;;;;4881199;29;20355;-79
2023/04/06 02:57:17;;;;;;;12.55;11.10;;;5.70;93.70;;;;;;4881979;29;20476;-79
2023/04/06 02:59:42;;;;;;;13.35;10.43;;;5.70;93.90;;;;;;4881768;29;20252;-79
2023/04/06 03:02:08;;;;;;;14.23;11.20;;;5.70;94.00;;;;;;4879965;29;20288;-79
2023/04/06 03:04:34;;;;;;;16.10;12.73;;;5.70;93.90;;;;;;4881568;29;20442;-79
2023/04/06 03:07:00;;;;;;;16.90;11.90;;;5.80;94.00;;;;;;4880119;29;20188;-79
2023/04/06 03:09:27;;;;;;;14.45;11.82;;;5.70;94.00;;;;;;4881972;29;20177;-79
2023/04/06 03:11:53;;;;;;;16.70;11.65;;;5.70;94.20;;;;;;4880887;29;20180;-79
2023/04/06 03:14:21;;;;;;;14.50;11.07;;;5.70;94.10;;;;;;4881494;29;20208;-79
2023/04/06 03:16:48;;;;;;;13.80;11.27;;;5.70;94.30;;;;;;4880607;29;20464;-78
2023/04/06 03:19:15;;;;;;;14.05;12.50;;;5.70;94.20;;;;;;4881109;29;20653;-79
2023/04/06 03:21:41;;;;;;;14.05;11.55;;;5.70;94.60;;;;;;4881519;29;20206;-79
2023/04/06 03:24:07;;;;;;;15.25;12.35;;;5.70;94.60;;;;;;4880951;29;20179;-79
2023/04/06 03:26:33;;;;;;;15.10;11.55;;;5.60;94.60;;;;;;4881507;29;20172;-79
2023/04/06 03:28:59;;;;;;;18.47;13.87;;;5.60;94.70;;;;;;4880586;29;20220;-79
2023/04/06 03:31:26;;;;;;;14.63;12.07;;;5.60;94.90;;;;;;4881291;29;20732;-79
2023/04/06 03:33:51;;;;;;;15.93;12.50;;;5.60;94.80;;;;;;4880441;29;20250;-80
2023/04/06 03:36:17;;;;;;;17.87;12.67;;;5.60;94.80;;;;;;4880295;29;20284;-79
2023/04/06 03:38:43;;;;;;;13.70;12.27;;;5.60;94.70;;;;;;4881094;29;20244;-79
2023/04/06 03:41:09;;;;;;;17.93;14.63;;;5.60;94.60;;;;;;4880727;29;20180;-79
2023/04/06 03:43:35;;;;;;;15.90;11.40;;;5.60;94.90;;;;;;4881239;29;20202;-79
2023/04/06 03:46:01;;;;;;;15.30;12.00;;;5.60;95.10;;;;;;4880207;29;20447;-78
2023/04/06 03:48:26;;;;;;;13.43;12.03;;;5.60;94.90;;;;;;4881609;29;20392;-77
2023/04/06 03:50:52;;;;;;;15.47;11.87;;;5.60;95.10;;;;;;4880321;29;20561;-77
2023/04/06 03:53:18;;;;;;;15.20;11.90;;;5.50;95.20;;;;;;4880945;29;20172;-77
2023/04/06 03:55:44;;;;;;;18.30;11.70;;;5.50;95.20;;;;;;4881065;29;20238;-77
2023/04/06 03:58:10;;;;;;;13.60;12.07;;;5.50;95.30;;;;;;4880418;29;20388;-77
2023/04/06 04:00:36;;;;;;;13.67;11.70;;;5.50;95.10;;;;;;4880882;29;20413;-77
2023/04/06 04:03:02;;;;;;;12.97;10.60;;;5.50;95.10;;;;;;4879999;29;20180;-76
2023/04/06 04:05:28;;;;;;;14.70;12.17;;;5.50;95.40;;;;;;4878571;29;20184;-76
2023/04/06 04:07:55;;;;;;;13.68;11.10;;;5.50;95.20;;;;;;4879825;29;20835;-76
2023/04/06 04:10:20;;;;;;;13.40;11.73;;;5.50;95.10;;;;;;4880005;29;20184;-77
2023/04/06 04:12:46;;;;;;;14.37;12.10;;;5.50;95.00;;;;;;4880615;29;20262;-77
2023/04/06 04:15:12;;;;;;;14.50;11.37;;;5.40;94.80;;;;;;4878814;29;20468;-77
2023/04/06 04:17:38;;;;;;;15.43;13.43;;;5.40;95.10;;;;;;4879391;29;20219;-77
2023/04/06 04:20:04;;;;;;;14.50;12.50;;;5.40;95.10;;;;;;4879606;29;20191;-77
2023/04/06 04:22:30;;;;;;;16.58;12.20;;;5.40;95.40;;;;;;4880193;29;20606;-77
2023/04/06 04:24:56;;;;;;;14.03;11.60;;;5.40;95.40;;;;;;4869777;29;20262;-77
2023/04/06 04:27:22;;;;;;;14.37;12.17;;;5.40;95.30;;;;;;4880210;29;20735;-77
2023/04/06 04:29:47;;;;;;;14.10;12.00;;;5.40;95.50;;;;;;4880120;29;20174;-77
2023/04/06 04:32:13;;;;;;;13.10;11.80;;;5.30;95.30;;;;;;4877915;29;20595;-78
2023/04/06 04:34:42;;;;;;;16.30;13.70;;;5.30;95.60;;;;;;4877739;29;20203;-77
2023/04/06 04:37:07;;;;;;;15.95;13.38;;;5.30;95.90;;;;;;4878603;29;20193;-77
2023/04/06 04:39:33;;;;;;;14.20;11.33;;;5.30;95.60;;;;;;4878079;29;20188;-77
2023/04/06 04:41:59;;;;;;;15.13;12.43;;;5.30;95.60;;;;;;4878111;29;20192;-77
2023/04/06 04:44:25;;;;;;;18.37;12.90;;;5.20;95.70;;;;;;4879674;29;20205;-77
2023/04/06 04:46:51;;;;;;;15.90;12.80;;;5.30;95.80;;;;;;4879501;29;20432;-76
2023/04/06 04:49:17;;;;;;;17.17;13.15;;;5.30;95.80;;;;;;4879143;29;20228;-77
2023/04/06 04:51:42;;;;;;;21.30;14.40;;;5.20;95.80;;;;;;4878660;29;20172;-76
2023/04/06 04:54:08;;;;;;;20.10;13.20;;;5.20;95.90;;;;;;4877925;29;20243;-79
2023/04/06 04:56:34;;;;;;;18.50;16.23;;;5.40;99.70;;;;;;4879359;29;20219;-79
2023/04/06 04:59:00;;;;;;;18.43;13.63;;;6.10;99.90;;;;;;4876696;29;20638;-79
2023/04/06 05:01:26;;;;;;;16.40;12.30;;;6.90;99.90;;;;;;4878547;29;20408;-78
2023/04/06 05:03:51;;;;;;;18.27;16.50;;;7.70;99.90;;;;;;4877811;29;20218;-78
2023/04/06 05:06:18;;;;;;;16.97;14.60;;;8.40;99.90;;;;;;4877743;29;20191;-78
2023/04/06 05:08:44;;;;;;;16.07;14.53;;;9.00;97.20;;;;;;4879197;29;20176;-78
2023/04/06 05:11:10;;;;;;;17.83;15.93;;;9.50;94.90;;;;;;4875992;29;20535;-78
2023/04/06 05:13:36;;;;;;;17.07;14.53;;;10.00;92.20;;;;;;4878812;29;20232;-78
2023/04/06 05:16:02;;;;;;;20.30;15.40;;;10.40;89.80;;;;;;4876550;29;20563;-79
2023/04/06 05:18:28;;;;;;;19.47;16.90;;;10.70;86.10;;;;;;4878123;29;20473;-78
2023/04/06 05:20:54;;;;;;;16.43;13.77;;;11.00;84.10;;;;;;4878850;29;20176;-78
2023/04/06 05:23:19;;;;;;;18.10;16.30;;;11.30;80.80;;;;;;4878627;29;20266;-78
2023/04/06 05:25:45;;;;;;;18.38;15.30;;;11.50;78.90;;;;;;4879145;29;20563;-85
2023/04/06 05:28:13;;;;;;;18.83;16.07;;;11.70;77.00;;;;;;4884484;29;20199;-83
2023/04/06 05:30:40;;;;;;;15.63;14.03;;;11.60;72.50;;;;;;4897900;29;20186;-82
2023/04/06 05:33:06;;;;;;;17.90;16.10;;;11.20;69.90;;;;;;4897037;29;20414;-83
2023/04/06 05:35:31;;;;;;;17.30;14.57;;;10.70;69.10;;;;;;4890282;29;20464;-82
2023/04/06 05:37:57;;;;;;;17.30;14.00;;;10.20;69.60;;;;;;4878266;29;20651;-87
2023/04/06 05:40:23;;;;;;;19.70;17.00;;;9.80;72.00;;;;;;4878941;29;20251;-81
2023/04/06 05:42:49;;;;;;;19.13;13.73;;;9.40;73.40;;;;;;4879137;29;20249;-82
2023/04/06 05:45:18;;;;;;;17.10;13.23;;;9.00;75.40;;;;;;4876992;29;20440;-83
2023/04/06 05:47:44;;;;;;;18.60;14.00;;;8.70;77.00;;;;;;4879074;29;20416;-79
2023/04/06 05:50:11;;;;;;;19.13;16.40;;;8.40;79.00;;;;;;4876929;29;20830;-80
2023/04/06 05:52:37;;;;;;;17.03;14.30;;;8.10;80.70;;;;;;4877583;29;20463;-79
2023/04/06 05:55:04;;;;;;;17.37;15.80;;;7.90;82.40;;;;;;4877860;29;20506;-79
2023/04/06 05:57:30;;;;;;;16.30;13.30;;;7.70;84.50;;;;;;4878026;29;20476;-79
2023/04/06 05:59:56;;;;;;;16.10;12.37;;;7.50;86.50;;;;;;4878042;29;20763;-79
2023/04/06 06:02:22;;;;;;;20.60;13.83;;;7.30;88.00;;;;;;4878036;29;20408;-81
2023/04/06 06:04:48;;;;;;;17.30;14.70;;;7.20;88.90;;;;;;4878830;29;20176;-81
2023/04/06 06:07:15;;;;;;;20.10;14.90;;;7.10;90.20;;;;;;4878025;29;20461;-81
2023/04/06 06:09:40;;;;;;;18.27;14.83;;;7.00;91.20;;;;;;4878841;29;20202;-80
2023/04/06 06:12:07;;;;;;;25.70;14.50;;;6.90;91.90;;;;;;4874007;29;20906;-81
2023/04/06 06:14:33;;;;;;;18.07;14.93;;;6.90;92.30;;;;;;4877544;29;20470;-81
2023/04/06 06:16:58;;;;;;;16.23;13.43;;;6.80;92.50;;;;;;4877030;29;20529;-80
2023/04/06 06:19:24;;;;;;;18.03;14.80;;;6.80;92.90;;;;;;4877644;29;20552;-81
2023/04/06 06:21:50;;;;;;;17.57;14.40;;;6.80;93.40;;;;;;4878633;29;20248;-81
2023/04/06 06:24:16;;;;;;;18.93;15.23;;;6.80;93.60;;;;;;4876510;29;20192;-81
2023/04/06 06:26:42;;;;;;;21.97;15.60;;;6.70;93.70;;;;;;4876979;29;20193;-81
2023/04/06 06:29:08;;;;;;;18.33;13.80;;;6.70;94.10;;;;;;4875661;29;20526;-81
2023/04/06 06:31:35;;;;;;;17.93;14.00;;;6.80;94.40;;;;;;4877904;29;20530;-81
2023/04/06 06:34:01;;;;;;;16.53;14.10;;;6.80;94.70;;;;;;4876459;29;20437;-80
2023/04/06 06:36:31;;;;;;;21.30;15.13;;;6.80;94.80;;;;;;4877205;29;20740;-81
2023/04/06 06:38:58;;;;;;;15.03;13.10;;;6.70;94.90;;;;;;4876824;29;20826;-80
2023/04/06 06:41:25;;;;;;;20.67;15.80;;;6.80;94.90;;;;;;4861527;29;20415;-81
2023/04/06 06:43:51;;;;;;;19.30;15.27;;;6.80;95.00;;;;;;4888854;29;20944;-81
2023/04/06 06:46:17;;;;;;;17.70;14.50;;;6.90;94.90;;;;;;4863072;29;20568;-81
2023/04/06 06:48:43;;;;;;;24.00;13.47;;;6.90;94.30;;;;;;4878303;29;20762;-81
2023/04/06 06:51:11;;;;;;;18.37;14.70;;;6.90;94.80;;;;;;4877658;29;20184;-81
2023/04/06 06:53:37;;;;;;;15.50;12.47;;;7.00;95.40;;;;;;4878572;29;20591;-87
2023/04/06 06:56:03;;;;;;;22.10;12.90;;;7.00;94.80;;;;;;4859785;29;20536;-80
2023/04/06 06:58:29;;;;;;;17.77;14.63;;;7.20;94.10;;;;;;4877218;29;20190;-81
2023/04/06 07:00:59;;;;;;;19.80;15.47;;;7.20;92.90;;;;;;4878037;29;20440;-81
2023/04/06 07:03:25;;;;;;;24.97;13.20;;;7.30;93.40;;;;;;4877458;29;20453;-82
2023/04/06 07:05:54;;;;;;;18.67;11.80;;;7.40;92.90;;;;;;4877486;29;20499;-81
2023/04/06 07:08:41;;;;;;;13.90;12.50;;;7.50;91.80;;;;;;4874396;29;20536;-82
2023/04/06 07:11:07;;;;;;;15.90;12.27;;;7.70;87.90;;;;;;4874475;29;20430;-81
2023/04/06 07:13:33;;;;;;;12.43;11.07;;;7.90;88.00;;;;;;4878961;29;20928;-82
2023/04/06 07:15:58;;;;;;;12.80;11.03;;;8.10;88.00;;;;;;4879407;29;20477;-80
2023/04/06 07:18:25;;;;;;;12.37;9.80;;;8.20;83.70;;;;;;4881267;29;20227;-82
2023/04/06 07:20:51;;;;;;;9.00;8.10;;;8.40;79.50;;;;;;4878312;29;20195;-81
2023/04/06 07:23:19;;;;;;;10.03;8.17;;;8.50;74.00;;;;;;4880850;29;20456;-81
2023/04/06 07:25:45;;;;;;;10.20;9.03;;;8.70;72.80;;;;;;4880811;29;20484;-82
2023/04/06 07:28:11;;;;;;;11.63;9.47;;;8.80;73.90;;;;;;4880582;29;20405;-82
2023/04/06 07:30:38;;;;;;;8.30;7.50;;;9.00;72.60;;;;;;4881462;29;20444;-81
2023/04/06 07:33:05;;;;;;;9.07;8.17;;;9.10;68.10;;;;;;4880296;29;20511;-81
2023/04/06 07:35:31;;;;;;;9.47;8.33;;;9.10;66.40;;;;;;4880389;29;20810;-82
2023/04/06 07:37:57;;;;;;;12.00;7.43;;;9.30;67.50;;;;;;4879977;29;20422;-82
2023/04/06 07:40:23;;;;;;;8.83;7.93;;;9.40;68.20;;;;;;4880369;29;20478;-82
2023/04/06 07:42:49;;;;;;;9.50;7.90;;;9.60;67.00;;;;;;4881132;29;20415;-82
2023/04/06 07:45:15;;;;;;;9.47;8.57;;;9.70;66.30;;;;;;4879631;29;20416;-81
2023/04/06 07:47:41;;;;;;;11.40;8.37;;;9.90;66.40;;;;;;4879435;29;20228;-82
2023/04/06 07:50:08;;;;;;;8.83;8.00;;;10.00;63.00;;;;;;4879017;29;20916;-81
2023/04/06 07:52:33;;;;;;;9.03;8.07;;;10.10;64.50;;;;;;4879771;29;20450;-82
2023/04/06 07:54:59;;;;;;;9.17;8.27;;;10.20;64.40;;;;;;4880820;29;20970;-82
2023/04/06 07:57:25;;;;;;;10.93;8.30;;;10.20;64.60;;;;;;4878249;29;20176;-82
2023/04/06 07:59:51;;;;;;;9.33;7.90;;;10.30;64.50;;;;;;4880789;29;20900;-82
2023/04/06 08:02:17;;;;;;;11.57;10.37;;;10.40;63.00;;;;;;4880035;29;20244;-82
2023/04/06 08:04:44;;;;;;;9.33;7.83;;;10.50;63.20;;;;;;4864032;29;20240;-82
2023/04/06 08:07:10;;;;;;;10.60;8.87;;;10.40;59.50;;;;;;4877934;29;20443;-81
2023/04/06 08:09:35;;;;;;;9.63;8.73;;;10.50;62.10;;;;;;4877230;29;20517;-81
2023/04/06 08:12:01;;;;;;;12.40;11.20;;;10.50;60.50;;;;;;4878459;29;20528;-81
2023/04/06 08:14:27;;;;;;;9.57;8.53;;;10.60;61.20;;;;;;4880068;29;20211;-82
2023/04/06 08:16:53;;;;;;;10.77;9.87;;;10.70;59.80;;;;;;4879607;29;20603;-82
2023/04/06 08:19:19;;;;;;;10.10;9.07;;;10.80;59.40;;;;;;4879643;29;20184;-82
2023/04/06 08:21:48;;;;;;;11.20;8.20;;;10.90;61.90;;;;;;4879323;29;20211;-82
2023/04/06 08:24:14;;;;;;;12.10;10.03;;;11.00;61.60;;;;;;4878699;29;20448;-82
2023/04/06 08:26:40;;;;;;;13.07;9.80;;;11.20;59.30;;;;;;4879534;29;20424;-82
2023/04/06 08:29:09;;;;;;;9.80;8.80;;;11.30;62.30;;;;;;4879537;29;20412;-82
2023/04/06 08:31:36;;;;;;;10.33;9.40;;;11.50;61.20;;;;;;4880240;29;20418;-82
2023/04/06 08:34:04;;;;;;;9.40;8.40;;;11.60;60.20;;;;;;4880841;29;20451;-81
2023/04/06 08:36:29;;;;;;;10.93;9.83;;;11.70;58.60;;;;;;4879917;29;20923;-82
2023/04/06 08:38:55;;;;;;;12.83;11.60;;;11.90;59.80;;;;;;4880457;29;20405;-82
2023/04/06 08:41:21;;;;;;;12.23;11.03;;;12.00;60.30;;;;;;4879390;29;20796;-82
2023/04/06 08:43:56;;;;;;;11.17;9.97;;;12.10;59.30;;;;;;4880156;29;20309;-82
2023/04/06 08:46:23;;;;;;;10.37;9.37;;;12.20;57.90;;;;;;4878709;29;20262;-81
2023/04/06 08:48:49;;;;;;;14.90;13.70;;;12.30;61.40;;;;;;4879452;29;20454;-81
2023/04/06 08:51:15;;;;;;;16.47;10.13;;;12.30;59.30;;;;;;4879409;29;20802;-81
2023/04/06 08:53:41;;;;;;;11.60;9.20;;;12.40;57.60;;;;;;4879931;29;20415;-81
2023/04/06 08:56:09;;;;;;;11.23;10.10;;;12.50;57.70;;;;;;4878384;29;20580;-79
2023/04/06 08:58:39;;;;;;;13.37;10.87;;;12.50;57.30;;;;;;4879286;29;20198;-81
2023/04/06 09:01:11;;;;;;;11.70;10.60;;;12.60;56.80;;;;;;4879836;29;20410;-80
2023/04/06 09:03:40;;;;;;;13.27;9.70;;;12.80;57.60;;;;;;4880066;29;20460;-81
2023/04/06 09:06:07;;;;;;;13.07;11.77;;;12.90;57.20;;;;;;4878285;29;20446;-80
2023/04/06 09:08:38;;;;;;;10.20;9.20;;;13.00;57.50;;;;;;4878348;29;20430;-81
2023/04/06 09:11:04;;;;;;;11.40;10.20;;;13.10;55.70;;;;;;4879572;29;20485;-81
2023/04/06 09:13:31;;;;;;;13.60;10.27;;;13.30;58.00;;;;;;4878868;29;20411;-81
2023/04/06 09:16:05;;;;;;;10.57;9.47;;;13.40;56.40;;;;;;4878597;29;20520;-81
2023/04/06 09:18:32;;;;;;;11.50;10.30;;;13.60;56.70;;;;;;4879205;29;20936;-81
2023/04/06 09:21:05;;;;;;;12.10;10.70;;;13.80;56.40;;;;;;4879273;29;20420;-81
2023/04/06 09:23:31;;;;;;;14.20;11.10;;;14.00;55.10;;;;;;4879061;29;20415;-81
2023/04/06 09:26:10;;;;;;;10.93;9.70;;;14.10;52.60;;;;;;4878592;29;20516;-81
2023/04/06 09:28:50;;;;;;;13.90;10.50;;;14.30;52.90;;;;;;4879332;29;20887;-81
2023/04/06 09:31:21;;;;;;;11.40;9.57;;;14.50;54.20;;;;;;4878677;29;20418;-81
2023/04/06 09:33:47;;;;;;;13.17;11.97;;;14.70;51.60;;;;;;4879437;29;20391;-81
2023/04/06 09:36:15;;;;;;;12.73;11.07;;;14.70;49.60;;;;;;4875777;29;20475;-81
2023/04/06 09:38:58;;;;;;;11.00;9.90;;;14.70;49.50;;;;;;4879195;29;20424;-81
2023/04/06 09:41:27;;;;;;;12.73;10.80;;;14.70;50.50;;;;;;4877368;29;20443;-81
2023/04/06 09:44:05;;;;;;;12.23;10.97;;;14.80;50.60;;;;;;4878036;29;20427;-81
2023/04/06 09:46:33;;;;;;;12.60;11.30;;;14.80;50.10;;;;;;4878288;29;20838;-81
2023/04/06 09:49:03;;;;;;;15.47;11.00;;;14.70;50.60;;;;;;4877481;29;20425;-81
2023/04/06 09:51:33;;;;;;;12.13;10.20;;;14.50;49.20;;;;;;4877621;29;20440;-81
2023/04/06 09:54:02;;;;;;;15.90;13.60;;;14.50;51.00;;;;;;4877685;29;20445;-83
2023/04/06 09:56:33;;;;;;;14.90;13.37;;;14.60;50.50;;;;;;4878394;29;20445;-82
2023/04/06 09:59:04;;;;;;;19.10;14.30;;;14.70;50.90;;;;;;4878885;29;20570;-81
2023/04/06 10:01:33;;;;;;;16.17;12.97;;;14.80;49.70;;;;;;4877424;29;20445;-81
2023/04/06 10:04:20;;;;;;;18.30;14.00;;;14.80;50.30;;;;;;4878715;29;20423;-83
2023/04/06 10:06:51;;;;;;;17.00;14.83;;;14.80;50.90;;;;;;4878500;29;20927;-83
2023/04/06 10:09:18;;;;;;;17.70;13.00;;;14.60;50.30;;;;;;4878054;29;20430;-81
2023/04/06 10:11:44;;;;;;;17.20;13.50;;;14.50;51.30;;;;;;4877387;29;20510;-82
2023/04/06 10:14:11;;;;;;;16.93;12.87;;;14.50;51.70;;;;;;4878179;29;20758;-80
2023/04/06 10:16:37;;;;;;;17.33;13.77;;;14.50;52.60;;;;;;4876839;29;20961;-82
2023/04/06 10:19:13;;;;;;;16.50;13.10;;;14.70;51.50;;;;;;4878655;29;20439;-82
2023/04/06 10:21:41;;;;;;;18.03;14.90;;;14.80;51.20;;;;;;4878519;29;20153;-81
2023/04/06 10:24:10;;;;;;;17.67;14.60;;;14.70;51.30;;;;;;4861918;29;20518;-81
2023/04/06 10:26:36;;;;;;;21.17;14.37;;;14.60;50.00;;;;;;4876867;29;20432;-81
2023/04/06 10:29:05;;;;;;;19.33;14.97;;;14.30;49.60;;;;;;4878104;29;20456;-81
2023/04/06 10:31:32;;;;;;;16.00;13.80;;;14.10;51.20;;;;;;4876472;29;20421;-81
2023/04/06 10:34:00;;;;;;;17.80;13.90;;;14.20;51.40;;;;;;4892779;29;20424;-81
2023/04/06 10:36:33;;;;;;;20.27;15.83;;;14.20;50.70;;;;;;4876990;29;20437;-81
2023/04/06 10:39:02;;;;;;;18.93;14.63;;;14.30;51.10;;;;;;4876518;29;20440;-82
2023/04/06 10:41:35;;;;;;;17.50;13.47;;;14.50;50.70;;;;;;4876590;29;20420;-82
2023/04/06 10:44:02;;;;;;;19.17;14.47;;;14.20;50.30;;;;;;4878507;29;20419;-82
2023/04/06 10:46:32;;;;;;;17.00;15.07;;;14.30;50.50;;;;;;4877463;29;20464;-82
2023/04/06 10:49:10;;;;;;;20.13;14.83;;;14.40;51.30;;;;;;4881246;29;20413;-82
2023/04/06 10:51:38;;;;;;;17.77;15.87;;;14.40;50.10;;;;;;4881667;29;20428;-82
2023/04/06 10:54:05;;;;;;;17.87;14.27;;;14.50;50.80;;;;;;4882004;29;20418;-82
2023/04/06 10:56:36;;;;;;;19.43;15.80;;;14.50;50.60;;;;;;4881256;29;20432;-81
2023/04/06 10:59:02;;;;;;;24.10;14.87;;;14.50;50.90;;;;;;4881276;29;20403;-82
2023/04/06 11:01:28;;;;;;;17.10;14.43;;;14.80;52.80;;;;;;4881088;29;20422;-82
2023/04/06 11:03:55;;;;;;;19.13;15.93;;;15.00;51.00;;;;;;4881926;29;20429;-82
2023/04/06 11:06:23;;;;;;;17.93;15.27;;;15.20;49.90;;;;;;4881037;29;20262;-82
2023/04/06 11:08:50;;;;;;;18.70;14.83;;;15.30;50.20;;;;;;4881728;29;20423;-81
2023/04/06 11:11:18;;;;;;;17.10;13.30;;;15.30;48.90;;;;;;4880608;29;20476;-80
2023/04/06 11:13:55;;;;;;;16.80;13.97;;;15.50;48.80;;;;;;4881714;29;20410;-82
2023/04/06 11:16:23;;;;;;;17.70;15.87;;;15.40;49.60;;;;;;4879651;29;20478;-83
2023/04/06 11:19:00;;;;;;;17.47;14.40;;;15.50;50.00;;;;;;4880227;29;20459;-82
2023/04/06 11:21:35;;;;;;;17.20;14.20;;;15.40;48.60;;;;;;4874031;29;20783;-82
2023/04/06 11:24:12;;;;;;;17.80;14.60;;;15.50;49.30;;;;;;4881950;29;20411;-82
2023/04/06 11:26:40;;;;;;;17.50;14.20;;;15.30;49.60;;;;;;4881864;29;20415;-83
2023/04/06 11:29:06;;;;;;;19.50;14.50;;;15.40;49.50;;;;;;4880342;29;20492;-82
2023/04/06 11:31:38;;;;;;;18.53;14.60;;;15.50;49.40;;;;;;4880848;29;20926;-82
2023/04/06 11:34:10;;;;;;;19.77;14.00;;;15.50;48.90;;;;;;4864468;29;20429;-82
2023/04/06 11:36:36;;;;;;;17.70;14.40;;;15.40;48.00;;;;;;4862560;29;20449;-82
2023/04/06 11:39:03;;;;;;;18.03;14.80;;;15.40;49.00;;;;;;4863009;29;20416;-82
2023/04/06 11:41:30;;;;;;;19.83;14.80;;;15.50;48.80;;;;;;4862398;29;20251;-82
2023/04/06 11:43:56;;;;;;;17.40;14.90;;;15.30;49.80;;;;;;4861919;29;20424;-82
2023/04/06 11:46:22;;;;;;;17.90;14.47;;;15.50;49.50;;;;;;4860919;29;20484;-82
2023/04/06 11:48:47;;;;;;;18.50;14.70;;;15.70;49.70;;;;;;4863033;29;20889;-82
2023/04/06 11:51:22;;;;;;;19.70;14.93;;;15.80;50.50;;;;;;4862850;29;20616;-82
2023/04/06 11:53:48;;;;;;;21.43;15.67;;;15.60;48.40;;;;;;4862840;29;20228;-82
2023/04/06 11:56:28;;;;;;;19.73;15.33;;;15.50;49.80;;;;;;4862325;29;20542;-81
2023/04/06 11:58:56;;;;;;;22.00;17.17;;;15.60;50.20;;;;;;4875733;29;20557;-82
2023/04/06 12:01:22;;;;;;;21.77;16.23;;;15.70;51.60;;;;;;4861920;29;20476;-82
2023/04/06 12:03:47;;;;;;;18.47;14.70;;;15.60;50.70;;;;;;4862873;29;20545;-82
2023/04/06 12:06:14;;;;;;;18.00;15.43;;;15.70;50.50;;;;;;4880779;29;20431;-82
2023/04/06 12:08:40;;;;;;;21.57;15.50;;;15.70;50.80;;;;;;4881119;29;20226;-82
2023/04/06 12:11:06;;;;;;;19.17;16.10;;;15.80;50.90;;;;;;4881235;29;20904;-82
2023/04/06 12:13:32;;;;;;;16.00;14.30;;;15.90;50.70;;;;;;4879342;29;20416;-82
2023/04/06 12:15:57;;;;;;;16.70;14.93;;;15.90;49.20;;;;;;4880789;29;20471;-82
2023/04/06 12:18:23;;;;;;;16.03;14.33;;;15.80;48.70;;;;;;4880526;29;20233;-82
2023/04/06 12:20:49;;;;;;;15.17;13.00;;;15.70;49.90;;;;;;4880694;29;20266;-82
2023/04/06 12:23:15;;;;;;;16.13;14.50;;;15.70;51.40;;;;;;4864129;29;20182;-82
2023/04/06 12:25:42;;;;;;;16.30;13.07;;;15.80;50.70;;;;;;4880397;29;20762;-82
2023/04/06 12:28:08;;;;;;;16.50;14.90;;;15.90;51.10;;;;;;4880663;29;20492;-82
2023/04/06 12:30:37;;;;;;;14.77;13.00;;;16.00;51.80;;;;;;4880166;29;20409;-82
2023/04/06 12:33:03;;;;;;;15.77;14.10;;;15.90;50.30;;;;;;4880667;29;20415;-82
2023/04/06 12:35:33;;;;;;;16.27;13.70;;;15.50;50.20;;;;;;4879153;29;20462;-82